sensor_id;sensor_type;location;lat;lon;timestamp;P1;durP1;ratioP1;P2;durP2;ratioP2
25023;SDS011;13033;50.936;5.334;2022-10-31T00:00:59;35.78;;;23.23;;
25023;SDS011;13033;50.936;5.334;2022-10-31T00:03:25;44.25;;;23.45;;
25023;SDS011;13033;50.936;5.334;2022-10-31T00:05:51;33.97;;;22.75;;
25023;SDS011;13033;50.936;5.334;2022-10-31T00:08:17;37.78;;;23.35;;
25023;SDS011;13033;50.936;5.334;2022-10-31T00:10:44;37.20;;;23.25;;
25023;SDS011;13033;50.936;5.334;2022-10-31T00:13:11;36.67;;;23.27;;
25023;SDS011;13033;50.936;5.334;2022-10-31T00:15:37;41.90;;;24.60;;
25023;SDS011;13033;50.936;5.334;2022-10-31T00:18:04;36.72;;;23.67;;
25023;SDS011;13033;50.936;5.334;2022-10-31T00:20:31;39.05;;;23.42;;
25023;SDS011;13033;50.936;5.334;2022-10-31T00:22:58;40.17;;;24.77;;
25023;SDS011;13033;50.936;5.334;2022-10-31T00:25:24;41.20;;;24.38;;
25023;SDS011;13033;50.936;5.334;2022-10-31T00:27:50;38.47;;;23.17;;
25023;SDS011;13033;50.936;5.334;2022-10-31T00:30:16;35.08;;;22.67;;
25023;SDS011;13033;50.936;5.334;2022-10-31T00:32:41;43.00;;;22.73;;
25023;SDS011;13033;50.936;5.334;2022-10-31T00:35:07;38.05;;;22.88;;
25023;SDS011;13033;50.936;5.334;2022-10-31T00:37:33;37.63;;;23.02;;
25023;SDS011;13033;50.936;5.334;2022-10-31T00:39:59;36.40;;;23.60;;
25023;SDS011;13033;50.936;5.334;2022-10-31T00:42:24;38.90;;;22.55;;
25023;SDS011;13033;50.936;5.334;2022-10-31T00:44:50;40.20;;;22.60;;
25023;SDS011;13033;50.936;5.334;2022-10-31T00:47:15;35.65;;;22.35;;
25023;SDS011;13033;50.936;5.334;2022-10-31T00:49:41;38.75;;;23.05;;
25023;SDS011;13033;50.936;5.334;2022-10-31T00:52:07;41.55;;;23.20;;
25023;SDS011;13033;50.936;5.334;2022-10-31T00:54:32;41.78;;;24.08;;
25023;SDS011;13033;50.936;5.334;2022-10-31T00:56:58;38.05;;;22.63;;
25023;SDS011;13033;50.936;5.334;2022-10-31T00:59:24;40.47;;;23.90;;
25023;SDS011;13033;50.936;5.334;2022-10-31T01:01:49;42.83;;;23.17;;
25023;SDS011;13033;50.936;5.334;2022-10-31T01:04:15;39.90;;;23.80;;
25023;SDS011;13033;50.936;5.334;2022-10-31T01:06:41;41.28;;;23.63;;
25023;SDS011;13033;50.936;5.334;2022-10-31T01:09:07;41.50;;;23.58;;
25023;SDS011;13033;50.936;5.334;2022-10-31T01:11:32;35.92;;;23.95;;
25023;SDS011;13033;50.936;5.334;2022-10-31T01:13:58;42.25;;;23.27;;
25023;SDS011;13033;50.936;5.334;2022-10-31T01:16:25;42.05;;;24.65;;
25023;SDS011;13033;50.936;5.334;2022-10-31T01:18:52;42.05;;;23.90;;
25023;SDS011;13033;50.936;5.334;2022-10-31T01:21:19;40.63;;;23.67;;
25023;SDS011;13033;50.936;5.334;2022-10-31T01:23:47;38.72;;;23.63;;
25023;SDS011;13033;50.936;5.334;2022-10-31T01:26:14;44.83;;;23.52;;
25023;SDS011;13033;50.936;5.334;2022-10-31T01:28:46;41.95;;;24.42;;
25023;SDS011;13033;50.936;5.334;2022-10-31T01:31:23;49.97;;;24.40;;
25023;SDS011;13033;50.936;5.334;2022-10-31T01:33:50;37.72;;;23.67;;
25023;SDS011;13033;50.936;5.334;2022-10-31T01:36:20;35.45;;;22.58;;
25023;SDS011;13033;50.936;5.334;2022-10-31T01:38:48;39.27;;;22.30;;
25023;SDS011;13033;50.936;5.334;2022-10-31T01:41:16;37.65;;;22.98;;
25023;SDS011;13033;50.936;5.334;2022-10-31T01:43:49;44.33;;;21.70;;
25023;SDS011;13033;50.936;5.334;2022-10-31T01:46:15;39.80;;;22.05;;
25023;SDS011;13033;50.936;5.334;2022-10-31T01:48:44;37.00;;;21.15;;
25023;SDS011;13033;50.936;5.334;2022-10-31T01:51:11;36.38;;;22.98;;
25023;SDS011;13033;50.936;5.334;2022-10-31T01:53:38;36.42;;;22.08;;
25023;SDS011;13033;50.936;5.334;2022-10-31T01:56:05;41.17;;;21.90;;
25023;SDS011;13033;50.936;5.334;2022-10-31T01:58:32;37.38;;;22.63;;
25023;SDS011;13033;50.936;5.334;2022-10-31T02:00:58;37.55;;;21.88;;
25023;SDS011;13033;50.936;5.334;2022-10-31T02:03:25;36.60;;;22.73;;
25023;SDS011;13033;50.936;5.334;2022-10-31T02:05:53;35.97;;;22.08;;
25023;SDS011;13033;50.936;5.334;2022-10-31T02:08:21;43.20;;;22.95;;
25023;SDS011;13033;50.936;5.334;2022-10-31T02:10:51;41.78;;;23.27;;
25023;SDS011;13033;50.936;5.334;2022-10-31T02:13:17;37.83;;;21.90;;
25023;SDS011;13033;50.936;5.334;2022-10-31T02:15:45;39.60;;;22.42;;
25023;SDS011;13033;50.936;5.334;2022-10-31T02:18:14;38.97;;;22.27;;
25023;SDS011;13033;50.936;5.334;2022-10-31T02:21:15;39.55;;;21.83;;
25023;SDS011;13033;50.936;5.334;2022-10-31T02:27:01;42.22;;;21.50;;
25023;SDS011;13033;50.936;5.334;2022-10-31T02:29:55;35.30;;;21.63;;
25023;SDS011;13033;50.936;5.334;2022-10-31T02:35:24;34.00;;;20.50;;
25023;SDS011;13033;50.936;5.334;2022-10-31T02:38:00;35.10;;;20.65;;
25023;SDS011;13033;50.936;5.334;2022-10-31T02:40:49;33.85;;;20.92;;
25023;SDS011;13033;50.936;5.334;2022-10-31T02:49:32;35.83;;;21.48;;
25023;SDS011;13033;50.936;5.334;2022-10-31T02:52:19;35.72;;;20.70;;
25023;SDS011;13033;50.936;5.334;2022-10-31T02:54:56;37.65;;;20.48;;
25023;SDS011;13033;50.936;5.334;2022-10-31T02:57:26;35.03;;;21.38;;
25023;SDS011;13033;50.936;5.334;2022-10-31T02:59:58;32.15;;;20.80;;
25023;SDS011;13033;50.936;5.334;2022-10-31T03:05:09;32.43;;;20.50;;
25023;SDS011;13033;50.936;5.334;2022-10-31T03:10:17;31.67;;;20.98;;
25023;SDS011;13033;50.936;5.334;2022-10-31T03:15:50;38.55;;;21.30;;
25023;SDS011;13033;50.936;5.334;2022-10-31T03:18:25;36.10;;;21.48;;
25023;SDS011;13033;50.936;5.334;2022-10-31T03:23:29;41.33;;;21.42;;
25023;SDS011;13033;50.936;5.334;2022-10-31T03:25:57;34.33;;;20.33;;
25023;SDS011;13033;50.936;5.334;2022-10-31T03:28:29;36.42;;;20.90;;
25023;SDS011;13033;50.936;5.334;2022-10-31T03:31:01;31.85;;;20.17;;
25023;SDS011;13033;50.936;5.334;2022-10-31T03:33:30;39.15;;;21.35;;
25023;SDS011;13033;50.936;5.334;2022-10-31T03:35:59;37.83;;;21.40;;
25023;SDS011;13033;50.936;5.334;2022-10-31T03:38:29;35.45;;;21.08;;
25023;SDS011;13033;50.936;5.334;2022-10-31T03:40:57;35.72;;;20.33;;
25023;SDS011;13033;50.936;5.334;2022-10-31T03:43:26;35.83;;;21.13;;
25023;SDS011;13033;50.936;5.334;2022-10-31T03:45:56;33.60;;;21.52;;
25023;SDS011;13033;50.936;5.334;2022-10-31T03:48:23;36.50;;;21.73;;
25023;SDS011;13033;50.936;5.334;2022-10-31T03:50:54;35.63;;;21.25;;
25023;SDS011;13033;50.936;5.334;2022-10-31T03:53:46;32.15;;;22.08;;
25023;SDS011;13033;50.936;5.334;2022-10-31T03:56:27;34.42;;;21.10;;
25023;SDS011;13033;50.936;5.334;2022-10-31T04:01:30;32.05;;;21.35;;
25023;SDS011;13033;50.936;5.334;2022-10-31T04:03:58;40.58;;;22.45;;
25023;SDS011;13033;50.936;5.334;2022-10-31T04:06:25;39.90;;;21.85;;
25023;SDS011;13033;50.936;5.334;2022-10-31T04:08:53;38.00;;;21.25;;
25023;SDS011;13033;50.936;5.334;2022-10-31T04:11:23;39.70;;;21.73;;
25023;SDS011;13033;50.936;5.334;2022-10-31T04:13:53;37.00;;;22.63;;
25023;SDS011;13033;50.936;5.334;2022-10-31T04:16:21;37.08;;;22.83;;
25023;SDS011;13033;50.936;5.334;2022-10-31T04:18:49;38.25;;;22.58;;
25023;SDS011;13033;50.936;5.334;2022-10-31T04:21:15;33.85;;;22.33;;
25023;SDS011;13033;50.936;5.334;2022-10-31T04:23:41;37.42;;;23.05;;
25023;SDS011;13033;50.936;5.334;2022-10-31T04:26:08;43.28;;;23.65;;
25023;SDS011;13033;50.936;5.334;2022-10-31T04:28:36;37.05;;;24.00;;
25023;SDS011;13033;50.936;5.334;2022-10-31T04:31:02;40.65;;;23.83;;
25023;SDS011;13033;50.936;5.334;2022-10-31T04:33:28;40.00;;;23.67;;
25023;SDS011;13033;50.936;5.334;2022-10-31T04:35:53;40.83;;;23.40;;
25023;SDS011;13033;50.936;5.334;2022-10-31T04:38:19;43.97;;;23.63;;
25023;SDS011;13033;50.936;5.334;2022-10-31T04:40:45;39.53;;;24.15;;
25023;SDS011;13033;50.936;5.334;2022-10-31T04:43:11;38.67;;;23.52;;
25023;SDS011;13033;50.936;5.334;2022-10-31T04:45:37;40.00;;;23.23;;
25023;SDS011;13033;50.936;5.334;2022-10-31T04:48:02;34.33;;;22.88;;
25023;SDS011;13033;50.936;5.334;2022-10-31T04:50:28;41.50;;;24.02;;
25023;SDS011;13033;50.936;5.334;2022-10-31T04:52:54;40.95;;;23.52;;
25023;SDS011;13033;50.936;5.334;2022-10-31T04:55:19;43.72;;;23.60;;
25023;SDS011;13033;50.936;5.334;2022-10-31T04:57:49;41.88;;;23.20;;
25023;SDS011;13033;50.936;5.334;2022-10-31T05:00:18;41.17;;;23.25;;
25023;SDS011;13033;50.936;5.334;2022-10-31T05:02:46;38.22;;;22.60;;
25023;SDS011;13033;50.936;5.334;2022-10-31T05:05:14;39.67;;;21.67;;
25023;SDS011;13033;50.936;5.334;2022-10-31T05:07:41;42.13;;;22.60;;
25023;SDS011;13033;50.936;5.334;2022-10-31T05:10:09;39.80;;;22.27;;
25023;SDS011;13033;50.936;5.334;2022-10-31T05:12:36;35.75;;;22.17;;
25023;SDS011;13033;50.936;5.334;2022-10-31T05:15:02;38.75;;;21.88;;
25023;SDS011;13033;50.936;5.334;2022-10-31T05:17:30;35.90;;;21.95;;
25023;SDS011;13033;50.936;5.334;2022-10-31T05:19:56;36.95;;;22.00;;
25023;SDS011;13033;50.936;5.334;2022-10-31T05:22:22;36.13;;;22.75;;
25023;SDS011;13033;50.936;5.334;2022-10-31T05:24:47;37.80;;;23.08;;
25023;SDS011;13033;50.936;5.334;2022-10-31T05:27:13;36.75;;;22.40;;
25023;SDS011;13033;50.936;5.334;2022-10-31T05:29:38;42.67;;;24.13;;
25023;SDS011;13033;50.936;5.334;2022-10-31T05:32:04;40.78;;;22.50;;
25023;SDS011;13033;50.936;5.334;2022-10-31T05:34:30;31.88;;;21.67;;
25023;SDS011;13033;50.936;5.334;2022-10-31T05:36:55;38.28;;;23.83;;
25023;SDS011;13033;50.936;5.334;2022-10-31T05:39:21;38.30;;;23.80;;
25023;SDS011;13033;50.936;5.334;2022-10-31T05:41:47;36.55;;;23.75;;
25023;SDS011;13033;50.936;5.334;2022-10-31T05:44:12;37.80;;;23.35;;
25023;SDS011;13033;50.936;5.334;2022-10-31T05:46:38;42.83;;;24.33;;
25023;SDS011;13033;50.936;5.334;2022-10-31T05:49:03;43.00;;;23.90;;
25023;SDS011;13033;50.936;5.334;2022-10-31T05:51:29;33.65;;;22.77;;
25023;SDS011;13033;50.936;5.334;2022-10-31T05:53:54;38.70;;;22.70;;
25023;SDS011;13033;50.936;5.334;2022-10-31T05:56:20;36.28;;;22.48;;
25023;SDS011;13033;50.936;5.334;2022-10-31T05:58:46;39.33;;;23.80;;
25023;SDS011;13033;50.936;5.334;2022-10-31T06:01:11;37.97;;;23.98;;
25023;SDS011;13033;50.936;5.334;2022-10-31T06:03:37;41.40;;;22.90;;
25023;SDS011;13033;50.936;5.334;2022-10-31T06:06:03;34.35;;;22.98;;
25023;SDS011;13033;50.936;5.334;2022-10-31T06:08:28;39.83;;;23.02;;
25023;SDS011;13033;50.936;5.334;2022-10-31T06:10:54;35.17;;;22.30;;
25023;SDS011;13033;50.936;5.334;2022-10-31T06:13:20;38.42;;;21.40;;
25023;SDS011;13033;50.936;5.334;2022-10-31T06:15:46;38.53;;;21.17;;
25023;SDS011;13033;50.936;5.334;2022-10-31T06:18:11;38.55;;;22.52;;
25023;SDS011;13033;50.936;5.334;2022-10-31T06:20:37;39.92;;;20.75;;
25023;SDS011;13033;50.936;5.334;2022-10-31T06:23:03;35.90;;;20.85;;
25023;SDS011;13033;50.936;5.334;2022-10-31T06:25:29;35.60;;;19.60;;
25023;SDS011;13033;50.936;5.334;2022-10-31T06:27:55;33.85;;;20.00;;
25023;SDS011;13033;50.936;5.334;2022-10-31T06:30:21;35.40;;;19.90;;
25023;SDS011;13033;50.936;5.334;2022-10-31T06:32:47;37.20;;;20.08;;
25023;SDS011;13033;50.936;5.334;2022-10-31T06:35:12;31.55;;;19.48;;
25023;SDS011;13033;50.936;5.334;2022-10-31T06:37:38;33.72;;;18.42;;
25023;SDS011;13033;50.936;5.334;2022-10-31T06:40:04;38.97;;;19.30;;
25023;SDS011;13033;50.936;5.334;2022-10-31T06:42:30;32.08;;;19.02;;
25023;SDS011;13033;50.936;5.334;2022-10-31T06:44:55;32.25;;;19.35;;
25023;SDS011;13033;50.936;5.334;2022-10-31T06:47:21;30.17;;;19.40;;
25023;SDS011;13033;50.936;5.334;2022-10-31T06:49:47;32.45;;;18.25;;
25023;SDS011;13033;50.936;5.334;2022-10-31T06:52:12;31.50;;;18.02;;
25023;SDS011;13033;50.936;5.334;2022-10-31T06:54:38;30.23;;;17.85;;
25023;SDS011;13033;50.936;5.334;2022-10-31T06:57:03;27.45;;;17.50;;
25023;SDS011;13033;50.936;5.334;2022-10-31T06:59:29;28.00;;;18.20;;
25023;SDS011;13033;50.936;5.334;2022-10-31T07:01:55;31.65;;;18.13;;
25023;SDS011;13033;50.936;5.334;2022-10-31T07:04:22;32.72;;;18.73;;
25023;SDS011;13033;50.936;5.334;2022-10-31T07:06:50;31.05;;;17.75;;
25023;SDS011;13033;50.936;5.334;2022-10-31T07:09:16;31.73;;;18.05;;
25023;SDS011;13033;50.936;5.334;2022-10-31T07:11:42;32.97;;;19.27;;
25023;SDS011;13033;50.936;5.334;2022-10-31T07:14:07;29.20;;;18.00;;
25023;SDS011;13033;50.936;5.334;2022-10-31T07:16:33;40.97;;;19.17;;
25023;SDS011;13033;50.936;5.334;2022-10-31T07:18:58;26.30;;;17.80;;
25023;SDS011;13033;50.936;5.334;2022-10-31T07:21:24;32.85;;;17.55;;
25023;SDS011;13033;50.936;5.334;2022-10-31T07:23:50;31.75;;;16.80;;
25023;SDS011;13033;50.936;5.334;2022-10-31T07:26:15;31.45;;;16.52;;
25023;SDS011;13033;50.936;5.334;2022-10-31T07:28:41;31.23;;;16.60;;
25023;SDS011;13033;50.936;5.334;2022-10-31T07:31:07;28.95;;;16.98;;
25023;SDS011;13033;50.936;5.334;2022-10-31T07:33:32;29.17;;;16.25;;
25023;SDS011;13033;50.936;5.334;2022-10-31T07:35:58;32.30;;;15.82;;
25023;SDS011;13033;50.936;5.334;2022-10-31T07:38:24;27.23;;;16.25;;
25023;SDS011;13033;50.936;5.334;2022-10-31T07:40:50;33.45;;;16.02;;
25023;SDS011;13033;50.936;5.334;2022-10-31T07:43:20;24.95;;;16.35;;
25023;SDS011;13033;50.936;5.334;2022-10-31T07:45:49;32.33;;;16.85;;
25023;SDS011;13033;50.936;5.334;2022-10-31T07:48:18;29.27;;;16.50;;
25023;SDS011;13033;50.936;5.334;2022-10-31T07:50:44;32.67;;;17.35;;
25023;SDS011;13033;50.936;5.334;2022-10-31T07:53:10;31.52;;;17.80;;
25023;SDS011;13033;50.936;5.334;2022-10-31T07:55:37;34.15;;;16.45;;
25023;SDS011;13033;50.936;5.334;2022-10-31T07:58:07;29.75;;;17.58;;
25023;SDS011;13033;50.936;5.334;2022-10-31T08:00:38;31.88;;;17.40;;
25023;SDS011;13033;50.936;5.334;2022-10-31T08:05:31;35.20;;;18.58;;
25023;SDS011;13033;50.936;5.334;2022-10-31T08:07:58;30.75;;;18.55;;
25023;SDS011;13033;50.936;5.334;2022-10-31T08:10:24;28.85;;;16.88;;
25023;SDS011;13033;50.936;5.334;2022-10-31T08:13:00;29.02;;;17.80;;
25023;SDS011;13033;50.936;5.334;2022-10-31T08:15:28;33.22;;;17.50;;
25023;SDS011;13033;50.936;5.334;2022-10-31T08:17:54;31.20;;;17.55;;
25023;SDS011;13033;50.936;5.334;2022-10-31T08:20:20;34.78;;;17.75;;
25023;SDS011;13033;50.936;5.334;2022-10-31T08:22:56;42.60;;;18.65;;
25023;SDS011;13033;50.936;5.334;2022-10-31T08:25:23;36.25;;;18.63;;
25023;SDS011;13033;50.936;5.334;2022-10-31T08:27:50;32.10;;;18.35;;
25023;SDS011;13033;50.936;5.334;2022-10-31T08:30:17;33.17;;;18.23;;
25023;SDS011;13033;50.936;5.334;2022-10-31T08:32:44;31.80;;;19.75;;
25023;SDS011;13033;50.936;5.334;2022-10-31T08:35:10;35.22;;;20.50;;
25023;SDS011;13033;50.936;5.334;2022-10-31T08:37:36;38.78;;;21.67;;
25023;SDS011;13033;50.936;5.334;2022-10-31T08:40:02;40.42;;;20.98;;
25023;SDS011;13033;50.936;5.334;2022-10-31T08:42:28;34.72;;;21.10;;
25023;SDS011;13033;50.936;5.334;2022-10-31T08:44:53;37.47;;;21.40;;
25023;SDS011;13033;50.936;5.334;2022-10-31T08:47:19;38.88;;;21.13;;
25023;SDS011;13033;50.936;5.334;2022-10-31T08:49:44;38.50;;;20.88;;
25023;SDS011;13033;50.936;5.334;2022-10-31T08:52:10;40.22;;;21.30;;
25023;SDS011;13033;50.936;5.334;2022-10-31T08:54:36;35.13;;;19.83;;
25023;SDS011;13033;50.936;5.334;2022-10-31T08:57:01;35.75;;;21.35;;
25023;SDS011;13033;50.936;5.334;2022-10-31T08:59:27;39.88;;;21.77;;
25023;SDS011;13033;50.936;5.334;2022-10-31T09:01:52;40.75;;;21.70;;
25023;SDS011;13033;50.936;5.334;2022-10-31T09:04:18;41.53;;;21.38;;
25023;SDS011;13033;50.936;5.334;2022-10-31T09:06:44;35.15;;;21.25;;
25023;SDS011;13033;50.936;5.334;2022-10-31T09:09:09;37.50;;;20.42;;
25023;SDS011;13033;50.936;5.334;2022-10-31T09:11:35;34.45;;;19.10;;
25023;SDS011;13033;50.936;5.334;2022-10-31T09:14:00;40.08;;;20.20;;
25023;SDS011;13033;50.936;5.334;2022-10-31T09:16:26;40.67;;;21.42;;
25023;SDS011;13033;50.936;5.334;2022-10-31T09:18:51;36.90;;;21.17;;
25023;SDS011;13033;50.936;5.334;2022-10-31T09:21:17;38.65;;;21.85;;
25023;SDS011;13033;50.936;5.334;2022-10-31T09:23:43;39.22;;;21.50;;
25023;SDS011;13033;50.936;5.334;2022-10-31T09:26:08;36.25;;;21.25;;
25023;SDS011;13033;50.936;5.334;2022-10-31T09:28:34;36.55;;;21.77;;
25023;SDS011;13033;50.936;5.334;2022-10-31T09:31:00;37.67;;;21.60;;
25023;SDS011;13033;50.936;5.334;2022-10-31T09:33:25;42.03;;;21.88;;
25023;SDS011;13033;50.936;5.334;2022-10-31T09:35:51;41.55;;;21.45;;
25023;SDS011;13033;50.936;5.334;2022-10-31T09:38:18;37.15;;;21.10;;
25023;SDS011;13033;50.936;5.334;2022-10-31T09:43:50;36.72;;;22.40;;
25023;SDS011;13033;50.936;5.334;2022-10-31T09:46:35;38.85;;;22.00;;
25023;SDS011;13033;50.936;5.334;2022-10-31T09:54:43;40.90;;;21.30;;
25023;SDS011;13033;50.936;5.334;2022-10-31T09:57:16;40.47;;;22.25;;
25023;SDS011;13033;50.936;5.334;2022-10-31T09:59:47;43.40;;;21.75;;
25023;SDS011;13033;50.936;5.334;2022-10-31T10:02:21;41.08;;;22.23;;
25023;SDS011;13033;50.936;5.334;2022-10-31T10:04:59;40.22;;;22.67;;
25023;SDS011;13033;50.936;5.334;2022-10-31T10:10:15;43.67;;;21.23;;
25023;SDS011;13033;50.936;5.334;2022-10-31T10:15:44;33.67;;;20.40;;
25023;SDS011;13033;50.936;5.334;2022-10-31T10:27:14;32.78;;;19.50;;
25023;SDS011;13033;50.936;5.334;2022-10-31T10:29:57;37.40;;;19.13;;
25023;SDS011;13033;50.936;5.334;2022-10-31T10:32:31;38.78;;;19.95;;
25023;SDS011;13033;50.936;5.334;2022-10-31T10:35:16;34.67;;;18.95;;
25023;SDS011;13033;50.936;5.334;2022-10-31T10:37:46;35.83;;;19.75;;
25023;SDS011;13033;50.936;5.334;2022-10-31T10:40:16;36.72;;;19.13;;
25023;SDS011;13033;50.936;5.334;2022-10-31T10:42:53;34.55;;;19.30;;
25023;SDS011;13033;50.936;5.334;2022-10-31T10:57:27;31.98;;;18.55;;
25023;SDS011;13033;50.936;5.334;2022-10-31T11:00:17;33.22;;;18.45;;
25023;SDS011;13033;50.936;5.334;2022-10-31T11:02:50;34.13;;;17.40;;
25023;SDS011;13033;50.936;5.334;2022-10-31T11:05:35;33.38;;;16.85;;
25023;SDS011;13033;50.936;5.334;2022-10-31T11:08:02;33.78;;;17.70;;
25023;SDS011;13033;50.936;5.334;2022-10-31T11:10:29;36.13;;;16.58;;
25023;SDS011;13033;50.936;5.334;2022-10-31T11:16:02;36.13;;;17.52;;
25023;SDS011;13033;50.936;5.334;2022-10-31T11:18:34;34.58;;;16.63;;
25023;SDS011;13033;50.936;5.334;2022-10-31T11:21:03;28.52;;;17.08;;
25023;SDS011;13033;50.936;5.334;2022-10-31T11:23:30;34.85;;;16.98;;
25023;SDS011;13033;50.936;5.334;2022-10-31T11:25:58;30.23;;;17.13;;
25023;SDS011;13033;50.936;5.334;2022-10-31T11:28:27;30.60;;;16.00;;
25023;SDS011;13033;50.936;5.334;2022-10-31T11:30:55;31.33;;;16.48;;
25023;SDS011;13033;50.936;5.334;2022-10-31T11:35:54;28.55;;;15.15;;
25023;SDS011;13033;50.936;5.334;2022-10-31T11:38:21;30.10;;;15.88;;
25023;SDS011;13033;50.936;5.334;2022-10-31T11:43:50;29.75;;;14.82;;
25023;SDS011;13033;50.936;5.334;2022-10-31T11:49:18;27.52;;;14.82;;
25023;SDS011;13033;50.936;5.334;2022-10-31T11:51:51;23.33;;;13.80;;
25023;SDS011;13033;50.936;5.334;2022-10-31T11:54:29;30.98;;;14.55;;
25023;SDS011;13033;50.936;5.334;2022-10-31T11:57:01;30.48;;;13.43;;
25023;SDS011;13033;50.936;5.334;2022-10-31T11:59:28;26.23;;;13.50;;
25023;SDS011;13033;50.936;5.334;2022-10-31T12:01:56;27.55;;;14.13;;
25023;SDS011;13033;50.936;5.334;2022-10-31T12:04:46;26.60;;;13.73;;
25023;SDS011;13033;50.936;5.334;2022-10-31T12:07:12;25.27;;;13.23;;
25023;SDS011;13033;50.936;5.334;2022-10-31T12:09:38;26.30;;;12.95;;
25023;SDS011;13033;50.936;5.334;2022-10-31T12:29:05;22.75;;;12.57;;
25023;SDS011;13033;50.936;5.334;2022-10-31T12:34:47;22.67;;;11.55;;
25023;SDS011;13033;50.936;5.334;2022-10-31T12:40:27;26.05;;;11.57;;
25023;SDS011;13033;50.936;5.334;2022-10-31T12:45:53;25.33;;;11.43;;
25023;SDS011;13033;50.936;5.334;2022-10-31T12:57:18;22.45;;;11.43;;
25023;SDS011;13033;50.936;5.334;2022-10-31T12:59:57;21.25;;;10.98;;
25023;SDS011;13033;50.936;5.334;2022-10-31T13:02:51;19.38;;;11.02;;
25023;SDS011;13033;50.936;5.334;2022-10-31T13:05:39;21.73;;;11.40;;
25023;SDS011;13033;50.936;5.334;2022-10-31T13:08:20;20.05;;;11.23;;
25023;SDS011;13033;50.936;5.334;2022-10-31T13:10:52;19.55;;;10.43;;
25023;SDS011;13033;50.936;5.334;2022-10-31T13:13:35;23.65;;;11.05;;
25023;SDS011;13033;50.936;5.334;2022-10-31T13:16:21;22.40;;;11.27;;
25023;SDS011;13033;50.936;5.334;2022-10-31T13:18:53;18.17;;;10.82;;
25023;SDS011;13033;50.936;5.334;2022-10-31T13:21:23;27.95;;;13.43;;
25023;SDS011;13033;50.936;5.334;2022-10-31T13:23:53;23.73;;;12.18;;
25023;SDS011;13033;50.936;5.334;2022-10-31T13:29:13;22.90;;;11.35;;
25023;SDS011;13033;50.936;5.334;2022-10-31T13:31:43;26.98;;;12.38;;
25023;SDS011;13033;50.936;5.334;2022-10-31T13:34:44;22.88;;;11.50;;
25023;SDS011;13033;50.936;5.334;2022-10-31T13:37:26;21.35;;;11.98;;
25023;SDS011;13033;50.936;5.334;2022-10-31T13:45:48;32.17;;;12.15;;
25023;SDS011;13033;50.936;5.334;2022-10-31T13:50:42;29.67;;;13.10;;
25023;SDS011;13033;50.936;5.334;2022-10-31T13:53:20;25.33;;;13.38;;
25023;SDS011;13033;50.936;5.334;2022-10-31T13:55:50;23.77;;;13.00;;
25023;SDS011;13033;50.936;5.334;2022-10-31T13:58:30;24.23;;;13.15;;
25023;SDS011;13033;50.936;5.334;2022-10-31T14:03:40;30.73;;;13.55;;
25023;SDS011;13033;50.936;5.334;2022-10-31T14:06:09;37.55;;;14.80;;
25023;SDS011;13033;50.936;5.334;2022-10-31T14:08:38;24.90;;;13.43;;
25023;SDS011;13033;50.936;5.334;2022-10-31T14:11:08;28.23;;;13.98;;
25023;SDS011;13033;50.936;5.334;2022-10-31T14:13:42;25.77;;;13.32;;
25023;SDS011;13033;50.936;5.334;2022-10-31T14:16:20;26.90;;;14.25;;
25023;SDS011;13033;50.936;5.334;2022-10-31T14:21:27;33.38;;;14.05;;
25023;SDS011;13033;50.936;5.334;2022-10-31T14:23:55;26.98;;;12.80;;
25023;SDS011;13033;50.936;5.334;2022-10-31T14:37:02;30.35;;;14.38;;
25023;SDS011;13033;50.936;5.334;2022-10-31T14:55:51;24.27;;;12.20;;
25023;SDS011;13033;50.936;5.334;2022-10-31T14:58:28;27.10;;;11.32;;
25023;SDS011;13033;50.936;5.334;2022-10-31T15:01:04;20.98;;;12.45;;
25023;SDS011;13033;50.936;5.334;2022-10-31T15:03:38;23.05;;;11.30;;
25023;SDS011;13033;50.936;5.334;2022-10-31T15:06:11;29.92;;;11.68;;
25023;SDS011;13033;50.936;5.334;2022-10-31T15:08:40;26.35;;;11.45;;
25023;SDS011;13033;50.936;5.334;2022-10-31T15:11:13;22.60;;;11.38;;
25023;SDS011;13033;50.936;5.334;2022-10-31T15:13:43;23.10;;;12.07;;
25023;SDS011;13033;50.936;5.334;2022-10-31T15:16:10;28.42;;;11.10;;
25023;SDS011;13033;50.936;5.334;2022-10-31T15:18:39;20.92;;;11.10;;
25023;SDS011;13033;50.936;5.334;2022-10-31T15:21:15;26.15;;;11.85;;
25023;SDS011;13033;50.936;5.334;2022-10-31T15:23:42;27.65;;;11.93;;
25023;SDS011;13033;50.936;5.334;2022-10-31T15:26:11;22.15;;;11.90;;
25023;SDS011;13033;50.936;5.334;2022-10-31T15:28:42;29.38;;;12.75;;
25023;SDS011;13033;50.936;5.334;2022-10-31T15:31:17;26.10;;;11.85;;
25023;SDS011;13033;50.936;5.334;2022-10-31T15:33:46;35.05;;;12.32;;
25023;SDS011;13033;50.936;5.334;2022-10-31T15:36:20;23.83;;;11.38;;
25023;SDS011;13033;50.936;5.334;2022-10-31T15:38:48;30.83;;;12.55;;
25023;SDS011;13033;50.936;5.334;2022-10-31T15:44:19;20.77;;;11.00;;
25023;SDS011;13033;50.936;5.334;2022-10-31T15:46:53;28.50;;;11.38;;
25023;SDS011;13033;50.936;5.334;2022-10-31T15:49:37;20.52;;;8.68;;
25023;SDS011;13033;50.936;5.334;2022-10-31T15:52:04;15.45;;;6.82;;
25023;SDS011;13033;50.936;5.334;2022-10-31T15:54:43;18.08;;;7.20;;
25023;SDS011;13033;50.936;5.334;2022-10-31T15:57:11;14.45;;;6.18;;
25023;SDS011;13033;50.936;5.334;2022-10-31T15:59:37;16.35;;;5.70;;
25023;SDS011;13033;50.936;5.334;2022-10-31T16:02:09;19.73;;;6.20;;
25023;SDS011;13033;50.936;5.334;2022-10-31T16:04:36;12.23;;;5.57;;
25023;SDS011;13033;50.936;5.334;2022-10-31T16:07:03;14.25;;;5.10;;
25023;SDS011;13033;50.936;5.334;2022-10-31T16:10:20;11.10;;;5.13;;
25023;SDS011;13033;50.936;5.334;2022-10-31T16:12:47;17.73;;;6.15;;
25023;SDS011;13033;50.936;5.334;2022-10-31T16:15:14;16.80;;;6.20;;
25023;SDS011;13033;50.936;5.334;2022-10-31T16:17:42;13.50;;;5.85;;
25023;SDS011;13033;50.936;5.334;2022-10-31T16:20:23;16.38;;;6.88;;
25023;SDS011;13033;50.936;5.334;2022-10-31T16:22:52;13.60;;;5.50;;
25023;SDS011;13033;50.936;5.334;2022-10-31T16:25:29;15.32;;;5.80;;
25023;SDS011;13033;50.936;5.334;2022-10-31T16:28:03;11.55;;;5.28;;
25023;SDS011;13033;50.936;5.334;2022-10-31T16:30:42;11.88;;;5.07;;
25023;SDS011;13033;50.936;5.334;2022-10-31T16:33:25;13.15;;;4.68;;
25023;SDS011;13033;50.936;5.334;2022-10-31T16:35:53;13.30;;;4.25;;
25023;SDS011;13033;50.936;5.334;2022-10-31T16:38:20;10.32;;;4.53;;
25023;SDS011;13033;50.936;5.334;2022-10-31T16:40:46;12.35;;;4.55;;
25023;SDS011;13033;50.936;5.334;2022-10-31T16:43:13;9.98;;;4.50;;
25023;SDS011;13033;50.936;5.334;2022-10-31T16:45:46;10.65;;;4.57;;
25023;SDS011;13033;50.936;5.334;2022-10-31T16:48:19;9.80;;;4.72;;
25023;SDS011;13033;50.936;5.334;2022-10-31T16:50:48;15.35;;;4.70;;
25023;SDS011;13033;50.936;5.334;2022-10-31T16:53:15;15.45;;;4.50;;
25023;SDS011;13033;50.936;5.334;2022-10-31T16:58:26;13.30;;;4.45;;
25023;SDS011;13033;50.936;5.334;2022-10-31T17:00:54;15.63;;;5.18;;
25023;SDS011;13033;50.936;5.334;2022-10-31T17:03:21;12.30;;;4.53;;
25023;SDS011;13033;50.936;5.334;2022-10-31T17:05:46;12.93;;;5.20;;
25023;SDS011;13033;50.936;5.334;2022-10-31T17:08:12;15.70;;;5.07;;
25023;SDS011;13033;50.936;5.334;2022-10-31T17:10:38;11.00;;;4.90;;
25023;SDS011;13033;50.936;5.334;2022-10-31T17:13:05;11.60;;;4.95;;
25023;SDS011;13033;50.936;5.334;2022-10-31T17:15:37;12.45;;;5.00;;